sensor_id;sensor_type;location;lat;lon;timestamp;P1;durP1;ratioP1;P2;durP2;ratioP2
40609;SDS011;26316;55.976;37.140;2023-03-05T00:02:21;0.40;;;0.40;;
40609;SDS011;26316;55.976;37.140;2023-03-05T00:04:47;0.47;;;0.38;;
40609;SDS011;26316;55.976;37.140;2023-03-05T00:07:12;0.82;;;0.50;;
40609;SDS011;26316;55.976;37.140;2023-03-05T00:09:38;5.10;;;0.70;;
40609;SDS011;26316;55.976;37.140;2023-03-05T00:12:04;0.60;;;0.47;;
40609;SDS011;26316;55.976;37.140;2023-03-05T00:14:31;0.40;;;0.40;;
40609;SDS011;26316;55.976;37.140;2023-03-05T00:16:56;0.40;;;0.40;;
40609;SDS011;26316;55.976;37.140;2023-03-05T00:19:22;0.28;;;0.28;;
40609;SDS011;26316;55.976;37.140;2023-03-05T00:21:48;2.15;;;0.35;;
40609;SDS011;26316;55.976;37.140;2023-03-05T00:24:15;0.47;;;0.47;;
40609;SDS011;26316;55.976;37.140;2023-03-05T00:26:43;0.30;;;0.30;;
40609;SDS011;26316;55.976;37.140;2023-03-05T00:29:10;0.60;;;0.50;;
40609;SDS011;26316;55.976;37.140;2023-03-05T00:31:39;0.60;;;0.50;;
40609;SDS011;26316;55.976;37.140;2023-03-05T00:34:06;0.45;;;0.40;;
40609;SDS011;26316;55.976;37.140;2023-03-05T00:36:34;0.93;;;0.30;;
40609;SDS011;26316;55.976;37.140;2023-03-05T00:39:03;0.77;;;0.40;;
40609;SDS011;26316;55.976;37.140;2023-03-05T00:41:30;0.22;;;0.22;;
40609;SDS011;26316;55.976;37.140;2023-03-05T00:43:56;0.85;;;0.32;;
40609;SDS011;26316;55.976;37.140;2023-03-05T00:46:21;0.52;;;0.50;;
40609;SDS011;26316;55.976;37.140;2023-03-05T00:48:48;0.82;;;0.55;;
40609;SDS011;26316;55.976;37.140;2023-03-05T00:51:14;0.38;;;0.38;;
40609;SDS011;26316;55.976;37.140;2023-03-05T00:53:40;2.05;;;0.30;;
40609;SDS011;26316;55.976;37.140;2023-03-05T00:56:05;2.30;;;0.50;;
40609;SDS011;26316;55.976;37.140;2023-03-05T00:58:31;0.43;;;0.40;;
40609;SDS011;26316;55.976;37.140;2023-03-05T01:00:58;0.45;;;0.30;;
40609;SDS011;26316;55.976;37.140;2023-03-05T01:03:24;0.43;;;0.43;;
40609;SDS011;26316;55.976;37.140;2023-03-05T01:05:50;0.68;;;0.50;;
40609;SDS011;26316;55.976;37.140;2023-03-05T01:08:16;0.35;;;0.35;;
40609;SDS011;26316;55.976;37.140;2023-03-05T01:10:41;1.90;;;0.30;;
40609;SDS011;26316;55.976;37.140;2023-03-05T01:13:07;0.65;;;0.43;;
40609;SDS011;26316;55.976;37.140;2023-03-05T01:15:33;0.80;;;0.35;;
40609;SDS011;26316;55.976;37.140;2023-03-05T01:17:59;0.40;;;0.28;;
40609;SDS011;26316;55.976;37.140;2023-03-05T01:20:25;0.65;;;0.35;;
40609;SDS011;26316;55.976;37.140;2023-03-05T01:22:51;0.70;;;0.43;;
40609;SDS011;26316;55.976;37.140;2023-03-05T01:25:17;0.65;;;0.50;;
40609;SDS011;26316;55.976;37.140;2023-03-05T01:27:44;0.50;;;0.30;;
40609;SDS011;26316;55.976;37.140;2023-03-05T01:30:10;2.05;;;0.50;;
40609;SDS011;26316;55.976;37.140;2023-03-05T01:32:38;0.30;;;0.30;;
40609;SDS011;26316;55.976;37.140;2023-03-05T01:35:04;0.68;;;0.40;;
40609;SDS011;26316;55.976;37.140;2023-03-05T01:37:30;1.30;;;0.75;;
40609;SDS011;26316;55.976;37.140;2023-03-05T01:39:56;0.60;;;0.50;;
40609;SDS011;26316;55.976;37.140;2023-03-05T01:42:23;2.63;;;0.40;;
40609;SDS011;26316;55.976;37.140;2023-03-05T01:45:06;1.55;;;0.45;;
40609;SDS011;26316;55.976;37.140;2023-03-05T01:47:37;0.82;;;0.32;;
40609;SDS011;26316;55.976;37.140;2023-03-05T01:50:05;0.20;;;0.20;;
40609;SDS011;26316;55.976;37.140;2023-03-05T01:52:34;0.50;;;0.40;;
40609;SDS011;26316;55.976;37.140;2023-03-05T01:55:02;0.68;;;0.40;;
40609;SDS011;26316;55.976;37.140;2023-03-05T01:57:32;0.40;;;0.40;;
40609;SDS011;26316;55.976;37.140;2023-03-05T02:00:09;0.30;;;0.30;;
40609;SDS011;26316;55.976;37.140;2023-03-05T02:02:48;0.60;;;0.45;;
40609;SDS011;26316;55.976;37.140;2023-03-05T02:05:18;0.70;;;0.40;;
40609;SDS011;26316;55.976;37.140;2023-03-05T02:07:52;0.68;;;0.38;;
40609;SDS011;26316;55.976;37.140;2023-03-05T02:10:20;0.68;;;0.55;;
40609;SDS011;26316;55.976;37.140;2023-03-05T02:12:48;0.40;;;0.32;;
40609;SDS011;26316;55.976;37.140;2023-03-05T02:15:34;0.30;;;0.30;;
40609;SDS011;26316;55.976;37.140;2023-03-05T02:18:01;0.47;;;0.45;;
40609;SDS011;26316;55.976;37.140;2023-03-05T02:20:28;0.77;;;0.40;;
40609;SDS011;26316;55.976;37.140;2023-03-05T02:22:56;0.77;;;0.55;;
40609;SDS011;26316;55.976;37.140;2023-03-05T02:25:23;1.92;;;0.47;;
40609;SDS011;26316;55.976;37.140;2023-03-05T02:28:03;0.40;;;0.32;;
40609;SDS011;26316;55.976;37.140;2023-03-05T02:30:33;2.72;;;0.55;;
40609;SDS011;26316;55.976;37.140;2023-03-05T02:33:00;0.63;;;0.60;;
40609;SDS011;26316;55.976;37.140;2023-03-05T02:35:26;0.93;;;0.50;;
40609;SDS011;26316;55.976;37.140;2023-03-05T02:37:52;0.80;;;0.43;;
40609;SDS011;26316;55.976;37.140;2023-03-05T02:40:18;0.70;;;0.43;;
40609;SDS011;26316;55.976;37.140;2023-03-05T02:42:43;0.40;;;0.40;;
40609;SDS011;26316;55.976;37.140;2023-03-05T02:45:11;0.80;;;0.70;;
40609;SDS011;26316;55.976;37.140;2023-03-05T02:47:40;1.77;;;0.50;;
40609;SDS011;26316;55.976;37.140;2023-03-05T02:50:07;0.93;;;0.90;;
40609;SDS011;26316;55.976;37.140;2023-03-05T02:52:35;1.00;;;1.00;;
40609;SDS011;26316;55.976;37.140;2023-03-05T02:55:03;1.70;;;1.60;;
40609;SDS011;26316;55.976;37.140;2023-03-05T02:57:29;1.88;;;1.77;;
40609;SDS011;26316;55.976;37.140;2023-03-05T02:59:55;1.30;;;1.27;;
40609;SDS011;26316;55.976;37.140;2023-03-05T03:02:21;1.70;;;1.60;;
40609;SDS011;26316;55.976;37.140;2023-03-05T03:04:47;2.03;;;1.90;;
40609;SDS011;26316;55.976;37.140;2023-03-05T03:07:13;2.10;;;2.00;;
40609;SDS011;26316;55.976;37.140;2023-03-05T03:09:39;1.52;;;1.42;;
40609;SDS011;26316;55.976;37.140;2023-03-05T03:12:07;1.70;;;1.60;;
40609;SDS011;26316;55.976;37.140;2023-03-05T03:14:35;1.35;;;1.25;;
40609;SDS011;26316;55.976;37.140;2023-03-05T03:17:04;1.85;;;1.20;;
40609;SDS011;26316;55.976;37.140;2023-03-05T03:19:31;1.30;;;1.20;;
40609;SDS011;26316;55.976;37.140;2023-03-05T03:21:57;0.82;;;0.82;;
40609;SDS011;26316;55.976;37.140;2023-03-05T03:24:22;1.13;;;0.93;;
40609;SDS011;26316;55.976;37.140;2023-03-05T03:26:48;0.80;;;0.80;;
40609;SDS011;26316;55.976;37.140;2023-03-05T03:29:14;0.77;;;0.77;;
40609;SDS011;26316;55.976;37.140;2023-03-05T03:31:41;0.85;;;0.70;;
40609;SDS011;26316;55.976;37.140;2023-03-05T03:34:07;1.60;;;0.75;;
40609;SDS011;26316;55.976;37.140;2023-03-05T03:36:33;0.70;;;0.70;;
40609;SDS011;26316;55.976;37.140;2023-03-05T03:38:59;0.35;;;0.35;;
40609;SDS011;26316;55.976;37.140;2023-03-05T03:41:24;0.60;;;0.60;;
40609;SDS011;26316;55.976;37.140;2023-03-05T03:43:50;0.60;;;0.55;;
40609;SDS011;26316;55.976;37.140;2023-03-05T03:46:16;0.70;;;0.50;;
40609;SDS011;26316;55.976;37.140;2023-03-05T03:48:41;1.38;;;0.70;;
40609;SDS011;26316;55.976;37.140;2023-03-05T03:51:07;1.48;;;0.88;;
40609;SDS011;26316;55.976;37.140;2023-03-05T03:53:33;0.30;;;0.30;;
40609;SDS011;26316;55.976;37.140;2023-03-05T03:55:58;1.27;;;0.60;;
40609;SDS011;26316;55.976;37.140;2023-03-05T03:58:24;0.93;;;0.60;;
40609;SDS011;26316;55.976;37.140;2023-03-05T04:00:50;1.80;;;0.70;;
40609;SDS011;26316;55.976;37.140;2023-03-05T04:03:16;0.50;;;0.50;;
40609;SDS011;26316;55.976;37.140;2023-03-05T04:05:42;1.10;;;0.43;;
40609;SDS011;26316;55.976;37.140;2023-03-05T04:08:07;0.93;;;0.50;;
40609;SDS011;26316;55.976;37.140;2023-03-05T04:10:37;0.52;;;0.45;;
40609;SDS011;26316;55.976;37.140;2023-03-05T04:13:04;0.60;;;0.40;;
40609;SDS011;26316;55.976;37.140;2023-03-05T04:15:30;0.93;;;0.60;;
40609;SDS011;26316;55.976;37.140;2023-03-05T04:17:57;3.28;;;0.63;;
40609;SDS011;26316;55.976;37.140;2023-03-05T04:20:23;0.40;;;0.40;;
40609;SDS011;26316;55.976;37.140;2023-03-05T04:22:49;0.43;;;0.43;;
40609;SDS011;26316;55.976;37.140;2023-03-05T04:25:15;1.67;;;0.60;;
40609;SDS011;26316;55.976;37.140;2023-03-05T04:27:41;0.50;;;0.50;;
40609;SDS011;26316;55.976;37.140;2023-03-05T04:30:07;0.40;;;0.30;;
40609;SDS011;26316;55.976;37.140;2023-03-05T04:32:36;0.65;;;0.45;;
40609;SDS011;26316;55.976;37.140;2023-03-05T04:35:01;0.57;;;0.57;;
40609;SDS011;26316;55.976;37.140;2023-03-05T04:37:28;0.60;;;0.60;;
40609;SDS011;26316;55.976;37.140;2023-03-05T04:39:54;1.10;;;0.70;;
40609;SDS011;26316;55.976;37.140;2023-03-05T04:42:19;0.88;;;0.60;;
40609;SDS011;26316;55.976;37.140;2023-03-05T04:44:47;1.25;;;0.70;;
40609;SDS011;26316;55.976;37.140;2023-03-05T04:47:13;1.40;;;0.90;;
40609;SDS011;26316;55.976;37.140;2023-03-05T04:49:39;0.60;;;0.60;;
40609;SDS011;26316;55.976;37.140;2023-03-05T04:52:05;2.53;;;1.00;;
40609;SDS011;26316;55.976;37.140;2023-03-05T04:54:31;1.38;;;0.70;;
40609;SDS011;26316;55.976;37.140;2023-03-05T04:56:56;0.73;;;0.70;;
40609;SDS011;26316;55.976;37.140;2023-03-05T04:59:24;0.60;;;0.50;;
40609;SDS011;26316;55.976;37.140;2023-03-05T05:02:18;1.30;;;0.70;;
40609;SDS011;26316;55.976;37.140;2023-03-05T05:04:43;0.75;;;0.45;;
40609;SDS011;26316;55.976;37.140;2023-03-05T05:07:10;1.00;;;0.68;;
40609;SDS011;26316;55.976;37.140;2023-03-05T05:09:37;2.25;;;0.57;;
40609;SDS011;26316;55.976;37.140;2023-03-05T05:12:04;0.60;;;0.60;;
40609;SDS011;26316;55.976;37.140;2023-03-05T05:14:30;2.13;;;0.50;;
40609;SDS011;26316;55.976;37.140;2023-03-05T05:16:55;1.13;;;0.60;;
40609;SDS011;26316;55.976;37.140;2023-03-05T05:19:21;0.98;;;0.50;;
40609;SDS011;26316;55.976;37.140;2023-03-05T05:21:47;2.40;;;0.60;;
40609;SDS011;26316;55.976;37.140;2023-03-05T05:24:12;1.98;;;0.80;;
40609;SDS011;26316;55.976;37.140;2023-03-05T05:26:38;1.00;;;0.90;;
40609;SDS011;26316;55.976;37.140;2023-03-05T05:29:04;2.10;;;1.10;;
40609;SDS011;26316;55.976;37.140;2023-03-05T05:31:30;1.58;;;0.80;;
40609;SDS011;26316;55.976;37.140;2023-03-05T05:33:56;1.25;;;1.15;;
40609;SDS011;26316;55.976;37.140;2023-03-05T05:36:23;1.40;;;1.30;;
40609;SDS011;26316;55.976;37.140;2023-03-05T05:38:49;1.33;;;1.20;;
40609;SDS011;26316;55.976;37.140;2023-03-05T05:41:16;0.98;;;0.93;;
40609;SDS011;26316;55.976;37.140;2023-03-05T05:43:42;1.25;;;1.15;;
40609;SDS011;26316;55.976;37.140;2023-03-05T05:46:15;1.80;;;0.98;;
40609;SDS011;26316;55.976;37.140;2023-03-05T05:48:42;1.58;;;0.80;;
40609;SDS011;26316;55.976;37.140;2023-03-05T05:51:09;1.15;;;0.82;;
40609;SDS011;26316;55.976;37.140;2023-03-05T05:53:39;1.83;;;1.08;;
40609;SDS011;26316;55.976;37.140;2023-03-05T05:56:06;0.75;;;0.73;;
40609;SDS011;26316;55.976;37.140;2023-03-05T05:58:37;1.17;;;0.88;;
40609;SDS011;26316;55.976;37.140;2023-03-05T06:01:25;1.27;;;1.08;;
40609;SDS011;26316;55.976;37.140;2023-03-05T06:03:52;1.38;;;1.27;;
40609;SDS011;26316;55.976;37.140;2023-03-05T06:06:20;1.20;;;1.10;;
40609;SDS011;26316;55.976;37.140;2023-03-05T06:08:58;1.13;;;1.00;;
40609;SDS011;26316;55.976;37.140;2023-03-05T06:12:27;1.75;;;1.38;;
40609;SDS011;26316;55.976;37.140;2023-03-05T06:14:53;1.27;;;1.20;;
40609;SDS011;26316;55.976;37.140;2023-03-05T06:17:19;1.63;;;1.20;;
40609;SDS011;26316;55.976;37.140;2023-03-05T06:19:44;2.15;;;1.50;;
40609;SDS011;26316;55.976;37.140;2023-03-05T06:22:10;2.08;;;1.80;;
40609;SDS011;26316;55.976;37.140;2023-03-05T06:24:36;1.63;;;1.52;;
40609;SDS011;26316;55.976;37.140;2023-03-05T06:27:03;1.80;;;1.70;;
40609;SDS011;26316;55.976;37.140;2023-03-05T06:29:29;2.45;;;2.13;;
40609;SDS011;26316;55.976;37.140;2023-03-05T06:31:55;2.10;;;2.00;;
40609;SDS011;26316;55.976;37.140;2023-03-05T06:34:21;2.38;;;2.17;;
40609;SDS011;26316;55.976;37.140;2023-03-05T06:36:47;2.17;;;1.98;;
40609;SDS011;26316;55.976;37.140;2023-03-05T06:39:13;2.20;;;2.00;;
40609;SDS011;26316;55.976;37.140;2023-03-05T06:41:38;2.72;;;2.30;;
40609;SDS011;26316;55.976;37.140;2023-03-05T06:44:04;2.30;;;2.20;;
40609;SDS011;26316;55.976;37.140;2023-03-05T06:46:31;2.67;;;2.47;;
40609;SDS011;26316;55.976;37.140;2023-03-05T06:48:59;3.20;;;2.90;;
40609;SDS011;26316;55.976;37.140;2023-03-05T06:51:31;3.60;;;2.85;;
40609;SDS011;26316;55.976;37.140;2023-03-05T06:53:59;2.53;;;2.20;;
40609;SDS011;26316;55.976;37.140;2023-03-05T06:56:26;2.80;;;2.47;;
40609;SDS011;26316;55.976;37.140;2023-03-05T06:58:52;4.82;;;2.47;;
40609;SDS011;26316;55.976;37.140;2023-03-05T07:01:18;2.70;;;2.38;;
40609;SDS011;26316;55.976;37.140;2023-03-05T07:03:47;2.90;;;2.30;;
40609;SDS011;26316;55.976;37.140;2023-03-05T07:06:13;5.43;;;2.50;;
40609;SDS011;26316;55.976;37.140;2023-03-05T07:08:40;4.10;;;2.95;;
40609;SDS011;26316;55.976;37.140;2023-03-05T07:11:10;2.92;;;2.65;;
40609;SDS011;26316;55.976;37.140;2023-03-05T07:13:37;3.13;;;2.70;;
40609;SDS011;26316;55.976;37.140;2023-03-05T07:16:04;3.17;;;2.67;;
40609;SDS011;26316;55.976;37.140;2023-03-05T07:18:31;2.65;;;2.45;;
40609;SDS011;26316;55.976;37.140;2023-03-05T07:21:00;2.83;;;2.40;;
40609;SDS011;26316;55.976;37.140;2023-03-05T07:23:29;3.45;;;2.70;;
40609;SDS011;26316;55.976;37.140;2023-03-05T07:25:55;3.17;;;2.85;;
40609;SDS011;26316;55.976;37.140;2023-03-05T07:28:21;2.22;;;2.10;;
40609;SDS011;26316;55.976;37.140;2023-03-05T07:30:55;2.65;;;2.45;;
40609;SDS011;26316;55.976;37.140;2023-03-05T07:33:22;3.08;;;2.40;;
40609;SDS011;26316;55.976;37.140;2023-03-05T07:35:48;3.28;;;3.00;;
40609;SDS011;26316;55.976;37.140;2023-03-05T07:38:13;4.32;;;2.63;;
40609;SDS011;26316;55.976;37.140;2023-03-05T07:40:39;2.95;;;2.70;;
40609;SDS011;26316;55.976;37.140;2023-03-05T07:43:04;3.47;;;2.60;;
40609;SDS011;26316;55.976;37.140;2023-03-05T07:45:33;4.18;;;2.60;;
40609;SDS011;26316;55.976;37.140;2023-03-05T07:47:58;2.95;;;2.65;;
40609;SDS011;26316;55.976;37.140;2023-03-05T07:50:24;2.83;;;2.63;;
40609;SDS011;26316;55.976;37.140;2023-03-05T07:52:50;3.35;;;2.72;;
40609;SDS011;26316;55.976;37.140;2023-03-05T07:55:15;3.70;;;3.15;;
40609;SDS011;26316;55.976;37.140;2023-03-05T07:57:41;4.60;;;3.15;;
40609;SDS011;26316;55.976;37.140;2023-03-05T08:00:07;4.18;;;2.88;;
40609;SDS011;26316;55.976;37.140;2023-03-05T08:02:39;4.00;;;2.75;;
40609;SDS011;26316;55.976;37.140;2023-03-05T08:05:05;3.53;;;2.85;;
40609;SDS011;26316;55.976;37.140;2023-03-05T08:07:30;5.18;;;3.70;;
40609;SDS011;26316;55.976;37.140;2023-03-05T08:09:56;2.78;;;2.58;;
40609;SDS011;26316;55.976;37.140;2023-03-05T08:12:22;4.38;;;2.97;;
40609;SDS011;26316;55.976;37.140;2023-03-05T08:14:47;3.38;;;3.08;;
40609;SDS011;26316;55.976;37.140;2023-03-05T08:17:13;3.60;;;3.00;;
40609;SDS011;26316;55.976;37.140;2023-03-05T08:19:39;4.07;;;3.22;;
40609;SDS011;26316;55.976;37.140;2023-03-05T08:22:04;3.47;;;3.17;;
40609;SDS011;26316;55.976;37.140;2023-03-05T08:24:30;4.35;;;3.95;;
40609;SDS011;26316;55.976;37.140;2023-03-05T08:26:56;4.22;;;3.47;;
40609;SDS011;26316;55.976;37.140;2023-03-05T08:29:22;3.75;;;3.30;;
40609;SDS011;26316;55.976;37.140;2023-03-05T08:31:49;3.25;;;3.00;;
40609;SDS011;26316;55.976;37.140;2023-03-05T08:34:16;3.67;;;3.17;;
40609;SDS011;26316;55.976;37.140;2023-03-05T08:36:41;5.47;;;3.08;;
40609;SDS011;26316;55.976;37.140;2023-03-05T08:39:07;3.97;;;3.53;;
40609;SDS011;26316;55.976;37.140;2023-03-05T08:41:34;2.90;;;2.70;;
40609;SDS011;26316;55.976;37.140;2023-03-05T08:44:00;4.13;;;3.40;;
40609;SDS011;26316;55.976;37.140;2023-03-05T08:46:25;3.92;;;3.13;;
40609;SDS011;26316;55.976;37.140;2023-03-05T08:48:51;4.85;;;3.40;;
40609;SDS011;26316;55.976;37.140;2023-03-05T08:51:18;3.05;;;2.83;;
40609;SDS011;26316;55.976;37.140;2023-03-05T08:53:47;3.40;;;3.10;;
40609;SDS011;26316;55.976;37.140;2023-03-05T08:56:13;3.17;;;2.88;;
40609;SDS011;26316;55.976;37.140;2023-03-05T08:58:39;3.55;;;2.95;;
40609;SDS011;26316;55.976;37.140;2023-03-05T09:01:05;3.78;;;3.33;;
40609;SDS011;26316;55.976;37.140;2023-03-05T09:03:31;5.47;;;3.80;;
40609;SDS011;26316;55.976;37.140;2023-03-05T09:06:00;3.78;;;3.10;;
40609;SDS011;26316;55.976;37.140;2023-03-05T09:08:27;3.25;;;2.92;;
40609;SDS011;26316;55.976;37.140;2023-03-05T09:10:53;3.55;;;3.20;;
40609;SDS011;26316;55.976;37.140;2023-03-05T09:13:19;3.90;;;3.20;;
40609;SDS011;26316;55.976;37.140;2023-03-05T09:15:46;5.03;;;3.78;;
40609;SDS011;26316;55.976;37.140;2023-03-05T09:18:18;4.00;;;3.60;;
40609;SDS011;26316;55.976;37.140;2023-03-05T09:20:45;3.92;;;3.35;;
40609;SDS011;26316;55.976;37.140;2023-03-05T09:23:11;5.05;;;3.30;;
40609;SDS011;26316;55.976;37.140;2023-03-05T09:25:38;3.35;;;3.05;;
40609;SDS011;26316;55.976;37.140;2023-03-05T09:28:05;5.30;;;3.35;;
40609;SDS011;26316;55.976;37.140;2023-03-05T09:30:31;3.65;;;3.17;;
40609;SDS011;26316;55.976;37.140;2023-03-05T09:33:00;4.38;;;3.58;;
40609;SDS011;26316;55.976;37.140;2023-03-05T09:35:26;4.00;;;3.20;;
40609;SDS011;26316;55.976;37.140;2023-03-05T09:37:52;4.20;;;3.72;;
40609;SDS011;26316;55.976;37.140;2023-03-05T09:40:18;7.18;;;3.78;;
40609;SDS011;26316;55.976;37.140;2023-03-05T09:50:36;3.78;;;3.42;;
40609;SDS011;26316;55.976;37.140;2023-03-05T09:55:56;2.92;;;2.72;;
40609;SDS011;26316;55.976;37.140;2023-03-05T10:00:49;3.58;;;3.15;;
40609;SDS011;26316;55.976;37.140;2023-03-05T10:09:02;4.30;;;3.08;;
40609;SDS011;26316;55.976;37.140;2023-03-05T10:14:04;3.13;;;2.65;;
40609;SDS011;26316;55.976;37.140;2023-03-05T10:16:35;3.28;;;2.80;;
40609;SDS011;26316;55.976;37.140;2023-03-05T10:27:31;4.80;;;3.63;;
40609;SDS011;26316;55.976;37.140;2023-03-05T10:35:18;5.20;;;3.38;;
40609;SDS011;26316;55.976;37.140;2023-03-05T10:45:49;3.40;;;3.00;;
40609;SDS011;26316;55.976;37.140;2023-03-05T10:48:24;3.72;;;3.05;;
40609;SDS011;26316;55.976;37.140;2023-03-05T10:51:00;5.63;;;3.30;;
40609;SDS011;26316;55.976;37.140;2023-03-05T10:53:30;3.72;;;2.83;;
40609;SDS011;26316;55.976;37.140;2023-03-05T10:56:02;4.63;;;3.22;;
40609;SDS011;26316;55.976;37.140;2023-03-05T10:58:29;2.97;;;2.60;;
40609;SDS011;26316;55.976;37.140;2023-03-05T11:03:48;6.15;;;2.90;;
40609;SDS011;26316;55.976;37.140;2023-03-05T11:06:27;4.18;;;2.97;;
40609;SDS011;26316;55.976;37.140;2023-03-05T11:08:55;5.00;;;3.45;;
40609;SDS011;26316;55.976;37.140;2023-03-05T11:14:33;4.25;;;3.20;;
40609;SDS011;26316;55.976;37.140;2023-03-05T11:17:02;5.03;;;3.28;;
40609;SDS011;26316;55.976;37.140;2023-03-05T11:19:47;5.25;;;3.55;;
40609;SDS011;26316;55.976;37.140;2023-03-05T11:25:10;4.47;;;3.33;;
40609;SDS011;26316;55.976;37.140;2023-03-05T11:27:47;4.65;;;3.20;;
40609;SDS011;26316;55.976;37.140;2023-03-05T11:30:19;3.33;;;2.85;;
40609;SDS011;26316;55.976;37.140;2023-03-05T11:32:49;3.80;;;3.30;;
40609;SDS011;26316;55.976;37.140;2023-03-05T11:35:29;5.15;;;3.28;;
40609;SDS011;26316;55.976;37.140;2023-03-05T11:38:00;3.50;;;3.08;;
40609;SDS011;26316;55.976;37.140;2023-03-05T11:40:29;4.07;;;2.85;;
40609;SDS011;26316;55.976;37.140;2023-03-05T11:42:59;4.80;;;3.47;;
40609;SDS011;26316;55.976;37.140;2023-03-05T11:46:08;4.75;;;3.13;;
40609;SDS011;26316;55.976;37.140;2023-03-05T11:48:41;5.63;;;3.03;;
40609;SDS011;26316;55.976;37.140;2023-03-05T11:51:42;3.17;;;2.88;;
40609;SDS011;26316;55.976;37.140;2023-03-05T11:54:10;4.40;;;3.08;;
40609;SDS011;26316;55.976;37.140;2023-03-05T11:56:40;3.75;;;2.75;;
40609;SDS011;26316;55.976;37.140;2023-03-05T11:59:15;3.47;;;2.85;;
40609;SDS011;26316;55.976;37.140;2023-03-05T12:01:44;3.97;;;2.60;;
40609;SDS011;26316;55.976;37.140;2023-03-05T12:04:12;3.03;;;2.55;;
40609;SDS011;26316;55.976;37.140;2023-03-05T12:06:46;3.72;;;2.70;;
40609;SDS011;26316;55.976;37.140;2023-03-05T12:09:22;3.25;;;2.85;;
40609;SDS011;26316;55.976;37.140;2023-03-05T12:11:53;3.25;;;2.95;;
40609;SDS011;26316;55.976;37.140;2023-03-05T12:19:57;4.07;;;2.88;;
40609;SDS011;26316;55.976;37.140;2023-03-05T12:22:35;6.88;;;2.95;;
40609;SDS011;26316;55.976;37.140;2023-03-05T12:27:53;3.45;;;2.85;;
40609;SDS011;26316;55.976;37.140;2023-03-05T12:33:00;5.13;;;2.58;;
40609;SDS011;26316;55.976;37.140;2023-03-05T12:35:32;2.90;;;2.47;;
40609;SDS011;26316;55.976;37.140;2023-03-05T12:38:21;2.95;;;2.63;;
40609;SDS011;26316;55.976;37.140;2023-03-05T12:46:41;2.83;;;2.38;;
40609;SDS011;26316;55.976;37.140;2023-03-05T12:51:44;3.15;;;2.65;;
40609;SDS011;26316;55.976;37.140;2023-03-05T12:54:20;3.92;;;2.70;;
40609;SDS011;26316;55.976;37.140;2023-03-05T12:57:00;3.40;;;2.78;;
40609;SDS011;26316;55.976;37.140;2023-03-05T12:59:32;2.97;;;2.65;;
40609;SDS011;26316;55.976;37.140;2023-03-05T13:02:08;4.30;;;2.80;;
40609;SDS011;26316;55.976;37.140;2023-03-05T13:04:43;3.50;;;2.95;;
40609;SDS011;26316;55.976;37.140;2023-03-05T13:07:12;4.38;;;2.17;;
40609;SDS011;26316;55.976;37.140;2023-03-05T13:09:40;4.82;;;2.58;;
40609;SDS011;26316;55.976;37.140;2023-03-05T13:12:19;5.43;;;2.70;;
40609;SDS011;26316;55.976;37.140;2023-03-05T13:14:46;3.15;;;2.85;;
40609;SDS011;26316;55.976;37.140;2023-03-05T13:17:27;2.55;;;2.33;;
40609;SDS011;26316;55.976;37.140;2023-03-05T13:20:22;5.40;;;2.90;;
40609;SDS011;26316;55.976;37.140;2023-03-05T13:23:01;8.07;;;3.22;;
40609;SDS011;26316;55.976;37.140;2023-03-05T13:25:28;3.20;;;2.72;;
40609;SDS011;26316;55.976;37.140;2023-03-05T13:28:01;4.60;;;2.83;;
40609;SDS011;26316;55.976;37.140;2023-03-05T13:30:28;2.97;;;2.67;;
40609;SDS011;26316;55.976;37.140;2023-03-05T13:32:56;3.50;;;2.33;;
40609;SDS011;26316;55.976;37.140;2023-03-05T13:35:27;3.85;;;2.80;;
40609;SDS011;26316;55.976;37.140;2023-03-05T13:37:53;2.63;;;2.35;;
40609;SDS011;26316;55.976;37.140;2023-03-05T13:40:22;2.50;;;2.30;;
40609;SDS011;26316;55.976;37.140;2023-03-05T13:42:52;4.32;;;2.70;;
40609;SDS011;26316;55.976;37.140;2023-03-05T13:45:23;2.65;;;2.40;;
40609;SDS011;26316;55.976;37.140;2023-03-05T13:47:58;3.30;;;2.65;;
40609;SDS011;26316;55.976;37.140;2023-03-05T13:50:47;5.45;;;2.92;;
40609;SDS011;26316;55.976;37.140;2023-03-05T13:53:18;4.43;;;3.05;;
40609;SDS011;26316;55.976;37.140;2023-03-05T13:55:48;3.60;;;2.97;;
40609;SDS011;26316;55.976;37.140;2023-03-05T14:01:11;3.75;;;2.95;;
40609;SDS011;26316;55.976;37.140;2023-03-05T14:03:39;4.22;;;3.40;;
40609;SDS011;26316;55.976;37.140;2023-03-05T14:06:11;5.25;;;4.00;;
40609;SDS011;26316;55.976;37.140;2023-03-05T14:08:40;5.00;;;3.90;;
40609;SDS011;26316;55.976;37.140;2023-03-05T14:11:13;4.18;;;3.40;;
40609;SDS011;26316;55.976;37.140;2023-03-05T14:13:39;4.65;;;3.15;;
40609;SDS011;26316;55.976;37.140;2023-03-05T14:16:07;3.30;;;3.00;;
40609;SDS011;26316;55.976;37.140;2023-03-05T14:18:53;4.35;;;3.60;;
40609;SDS011;26316;55.976;37.140;2023-03-05T14:21:23;4.10;;;3.38;;
40609;SDS011;26316;55.976;37.140;2023-03-05T14:23:50;7.03;;;3.85;;
40609;SDS011;26316;55.976;37.140;2023-03-05T14:26:26;5.43;;;3.88;;
40609;SDS011;26316;55.976;37.140;2023-03-05T14:28:59;6.10;;;3.33;;
40609;SDS011;26316;55.976;37.140;2023-03-05T14:31:27;4.03;;;2.75;;
40609;SDS011;26316;55.976;37.140;2023-03-05T14:34:02;4.00;;;3.08;;
40609;SDS011;26316;55.976;37.140;2023-03-05T14:36:29;4.35;;;2.85;;
40609;SDS011;26316;55.976;37.140;2023-03-05T14:38:56;4.28;;;3.10;;
40609;SDS011;26316;55.976;37.140;2023-03-05T14:44:10;4.70;;;3.20;;
40609;SDS011;26316;55.976;37.140;2023-03-05T14:46:37;5.65;;;3.80;;
40609;SDS011;26316;55.976;37.140;2023-03-05T14:49:03;3.65;;;3.08;;
40609;SDS011;26316;55.976;37.140;2023-03-05T14:51:36;5.57;;;3.78;;
40609;SDS011;26316;55.976;37.140;2023-03-05T14:54:03;6.72;;;3.88;;
40609;SDS011;26316;55.976;37.140;2023-03-05T14:56:29;8.32;;;4.00;;
40609;SDS011;26316;55.976;37.140;2023-03-05T14:58:54;6.72;;;4.40;;
40609;SDS011;26316;55.976;37.140;2023-03-05T15:01:22;5.88;;;4.30;;
40609;SDS011;26316;55.976;37.140;2023-03-05T15:03:49;6.28;;;4.97;;
40609;SDS011;26316;55.976;37.140;2023-03-05T15:06:17;6.13;;;4.40;;
40609;SDS011;26316;55.976;37.140;2023-03-05T15:08:45;4.63;;;3.55;;
40609;SDS011;26316;55.976;37.140;2023-03-05T15:11:11;6.38;;;3.88;;
40609;SDS011;26316;55.976;37.140;2023-03-05T15:13:37;4.63;;;3.67;;
40609;SDS011;26316;55.976;37.140;2023-03-05T15:16:03;5.07;;;4.03;;
40609;SDS011;26316;55.976;37.140;2023-03-05T15:18:29;5.22;;;3.20;;
40609;SDS011;26316;55.976;37.140;2023-03-05T15:20:55;4.32;;;3.83;;
40609;SDS011;26316;55.976;37.140;2023-03-05T15:23:21;5.28;;;3.42;;
40609;SDS011;26316;55.976;37.140;2023-03-05T15:25:47;5.57;;;3.90;;
40609;SDS011;26316;55.976;37.140;2023-03-05T15:28:13;5.95;;;3.90;;
40609;SDS011;26316;55.976;37.140;2023-03-05T15:30:39;8.27;;;4.90;;
40609;SDS011;26316;55.976;37.140;2023-03-05T15:33:09;7.45;;;4.78;;
40609;SDS011;26316;55.976;37.140;2023-03-05T15:35:36;9.73;;;8.00;;
40609;SDS011;26316;55.976;37.140;2023-03-05T15:38:02;11.77;;;9.38;;
40609;SDS011;26316;55.976;37.140;2023-03-05T15:40:28;12.35;;;11.05;;
40609;SDS011;26316;55.976;37.140;2023-03-05T15:42:59;14.77;;;12.95;;
40609;SDS011;26316;55.976;37.140;2023-03-05T15:45:25;14.95;;;12.98;;
40609;SDS011;26316;55.976;37.140;2023-03-05T15:47:51;15.88;;;12.55;;
40609;SDS011;26316;55.976;37.140;2023-03-05T15:50:19;14.43;;;12.50;;
40609;SDS011;26316;55.976;37.140;2023-03-05T15:52:45;11.43;;;9.93;;
40609;SDS011;26316;55.976;37.140;2023-03-05T15:55:11;13.43;;;9.45;;
40609;SDS011;26316;55.976;37.140;2023-03-05T15:57:41;8.77;;;7.07;;
40609;SDS011;26316;55.976;37.140;2023-03-05T16:02:35;7.80;;;6.57;;